Observation data for Northfield on 04/16/2021      Previous  Date  Next       Current Mesonet Observations  Soil Data  Daily Summary Page  Observations in Plain Language
KNOR 160500Z 10008KT 08/08 A2991 RMK A01 T00810077  RH  100%=      5-min Rain = 0
KNOR 160505Z 10009KT 08/08 A299 RMK A01 T00810077  RH  100%=      5-min Rain = 0
KNOR 160510Z 09009KT 08/08 A299 RMK A01 T00810077  RH  100%=      5-min Rain = 0
KNOR 160515Z 10007KT 08/08 A299 RMK A01 T00820078  RH  100%=      5-min Rain = 0
KNOR 160520Z 10007KT 08/08 A299 RMK A01 T00820078  RH  100%=      5-min Rain = 0
KNOR 160525Z 10008KT 08/08 A299 RMK A01 T00820078  RH  100%=      5-min Rain = 0
KNOR 160530Z 10008KT 08/08 A299 RMK A01 T00820078  RH  100%=      5-min Rain = 0
KNOR 160535Z 10007KT 08/08 A299 RMK A01 T00820078  RH  100%=      5-min Rain = 0
KNOR 160540Z 09007KT 08/08 A299 RMK A01 T00820078  RH  100%=      5-min Rain = 0
KNOR 160545Z 09007G12KT 08/08 A299 RMK A01 T00830079  RH  100%=      5-min Rain = 0
KNOR 160550Z 09007KT 08/08 A299 RMK A01 T00830079  RH  100%=      5-min Rain = 0
KNOR 160555Z 10005G10KT 08/08 A299 RMK A01 T00830079  RH  100%=      5-min Rain = 0
KNOR 160600Z 10007KT 08/08 A2989 RMK A01 T00830079  RH  100%=      5-min Rain = 0
KNOR 160605Z 11007KT 08/08 A2989 RMK A01 T00830079  RH  100%=      5-min Rain = 0
KNOR 160610Z 11006KT 08/08 A299 RMK A01 T00840079  RH  100%=      5-min Rain = 0
KNOR 160615Z 11005KT 08/08 A299 RMK A01 T00840080  RH  100%=      5-min Rain = 0
KNOR 160620Z 11006KT 08/08 A299 RMK A01 T00840080  RH  100%=      5-min Rain = 0.01
KNOR 160625Z 10007KT 08/08 A299 RMK A01 T00840080  RH  100%=      5-min Rain = 0
KNOR 160630Z 11007KT 08/08 A2989 RMK A01 T00840080  RH  100%=      5-min Rain = 0
KNOR 160635Z 11006KT 08/08 A2989 RMK A01 T00840080  RH  100%=      5-min Rain = 0
KNOR 160640Z 10007KT 08/08 A2989 RMK A01 T00840080  RH  100%=      5-min Rain = 0
KNOR 160645Z 10006KT 08/08 A2989 RMK A01 T00840080  RH  100%=      5-min Rain = 0
KNOR 160650Z 11005KT 09/08 A2989 RMK A01 T00850081  RH  100%=      5-min Rain = 0
KNOR 160655Z 11005KT 09/08 A2989 RMK A01 T00850081  RH  100%=      5-min Rain = 0
KNOR 160700Z 11006KT 09/08 A2989 RMK A01 T00850081  RH  100%=      5-min Rain = 0
KNOR 160705Z 11005KT 09/08 A2989 RMK A01 T00850081  RH  100%=      5-min Rain = 0
KNOR 160710Z 11006KT 09/08 A2989 RMK A01 T00850081  RH  100%=      5-min Rain = 0
KNOR 160715Z 11005KT 09/08 A2988 RMK A01 T00850081  RH  100%=      5-min Rain = 0
KNOR 160720Z 10006KT 09/08 A2987 RMK A01 T00850081  RH  100%=      5-min Rain = 0
KNOR 160725Z 11005KT 09/08 A2987 RMK A01 T00850081  RH  100%=      5-min Rain = 0
KNOR 160730Z 10006KT 09/08 A2986 RMK A01 T00850081  RH  100%=      5-min Rain = 0
KNOR 160735Z 07007KT 08/08 A2986 RMK A01 T00830079  RH  100%=      5-min Rain = 0
KNOR 160740Z 07005KT 08/08 A2986 RMK A01 T00820078  RH  100%=      5-min Rain = 0
KNOR 160745Z 07005KT 08/08 A2986 RMK A01 T00810077  RH  100%=      5-min Rain = 0
KNOR 160750Z 07005KT 08/08 A2986 RMK A01 T00810077  RH  100%=      5-min Rain = 0
KNOR 160755Z 07005KT 08/08 A2986 RMK A01 T00810077  RH  100%=      5-min Rain = 0.01
KNOR 160800Z 06005KT 08/08 A2986 RMK A01 T00810077  RH  100%=      5-min Rain = 0
KNOR 160805Z 05004KT 08/08 A2987 RMK A01 T00810077  RH  100%=      5-min Rain = 0
KNOR 160810Z 03004KT 08/08 A2987 RMK A01 T00810077  RH  100%=      5-min Rain = 0
KNOR 160815Z 00007KT 08/08 A2989 RMK A01 T00820078  RH  100%=      5-min Rain = 0
KNOR 160820Z 35008KT 08/08 A299 RMK A01 T00820078  RH  100%=      5-min Rain = 0
KNOR 160825Z 35008KT 08/08 A299 RMK A01 T00820078  RH  100%=      5-min Rain = 0
KNOR 160830Z 01007KT 08/08 A2989 RMK A01 T00820078  RH  100%=      5-min Rain = 0
KNOR 160835Z 35008KT 08/08 A299 RMK A01 T00820078  RH  100%=      5-min Rain = 0.02
KNOR 160840Z 35008KT 08/08 A2989 RMK A01 T00810077  RH  100%=      5-min Rain = 0
KNOR 160845Z 35009KT 08/08 A299 RMK A01 T00800076  RH  100%=      5-min Rain = 0
KNOR 160850Z 35009KT 08/08 A299 RMK A01 T00800076  RH  100%=      5-min Rain = 0
KNOR 160855Z 35009KT 08/08 A299 RMK A01 T00800076  RH  100%=      5-min Rain = 0
KNOR 160900Z 35009KT 08/08 A299 RMK A01 T00800076  RH  100%=      5-min Rain = 0
KNOR 160905Z 35008KT 08/08 A299 RMK A01 T00800076  RH  100%=      5-min Rain = 0
KNOR 160910Z 35009KT 08/08 A2991 RMK A01 T00800076  RH  100%=      5-min Rain = 0.01
KNOR 160915Z 36008KT 08/08 A2991 RMK A01 T00800076  RH  100%=      5-min Rain = 0
KNOR 160920Z 36007KT 08/08 A299 RMK A01 T00800076  RH  100%=      5-min Rain = 0
KNOR 160925Z 00010KT 08/08 A299 RMK A01 T00790075  RH  100%=      5-min Rain = 0
KNOR 160930Z 35008KT 08/08 A299 RMK A01 T00790075  RH  100%=      5-min Rain = 0
KNOR 160935Z 00008KT 08/08 A299 RMK A01 T00790075  RH  100%=      5-min Rain = 0
KNOR 160940Z 36007KT 08/08 A299 RMK A01 T00780075  RH  100%=      5-min Rain = 0
KNOR 160945Z 36008KT 08/07 A299 RMK A01 T00780074  RH  100%=      5-min Rain = 0
KNOR 160950Z 36007KT 08/07 A299 RMK A01 T00780074  RH  100%=      5-min Rain = 0
KNOR 160955Z 00009KT 08/07 A299 RMK A01 T00780074  RH  100%=      5-min Rain = 0
KNOR 161000Z 00008KT 08/07 A299 RMK A01 T00780074  RH  100%=      5-min Rain = 0
KNOR 161005Z 36006KT 08/07 A299 RMK A01 T00780074  RH  100%=      5-min Rain = 0
KNOR 161010Z 36007KT 08/07 A299 RMK A01 T00780074  RH  100%=      5-min Rain = 0
KNOR 161015Z 35007G13KT 08/07 A299 RMK A01 T00780074  RH  100%=      5-min Rain = 0
KNOR 161020Z 35008G13KT 08/07 A299 RMK A01 T00780074  RH  100%=      5-min Rain = 0
KNOR 161025Z 35009KT 08/07 A299 RMK A01 T00780074  RH  100%=      5-min Rain = 0
KNOR 161030Z 01009KT 08/07 A299 RMK A01 T00770073  RH  100%=      5-min Rain = 0
KNOR 161035Z 00010KT 08/07 A299 RMK A01 T00770073  RH  100%=      5-min Rain = 0
KNOR 161040Z 00009KT 08/07 A299 RMK A01 T00760072  RH  100%=      5-min Rain = 0
KNOR 161045Z 36007KT 08/07 A299 RMK A01 T00760073  RH  100%=      5-min Rain = 0
KNOR 161050Z 35008KT 08/07 A299 RMK A01 T00760072  RH  100%=      5-min Rain = 0
KNOR 161055Z 00009KT 08/07 A299 RMK A01 T00750072  RH  100%=      5-min Rain = 0
KNOR 161100Z 00008KT 08/07 A299 RMK A01 T00750072  RH  100%=      5-min Rain = 0.01
KNOR 161105Z 00008KT 08/07 A299 RMK A01 T00750071  RH  100%=      5-min Rain = 0
KNOR 161110Z 01008KT 08/07 A299 RMK A01 T00750072  RH  100%=      5-min Rain = 0
KNOR 161115Z 02009KT 08/07 A299 RMK A01 T00750072  RH  100%=      5-min Rain = 0
KNOR 161120Z 02006KT 08/07 A299 RMK A01 T00750071  RH  100%=      5-min Rain = 0
KNOR 161125Z 03007KT 07/07 A2989 RMK A01 T00740070  RH  100%=      5-min Rain = 0
KNOR 161130Z 03006KT 07/07 A2989 RMK A01 T00730070  RH  100%=      5-min Rain = 0
KNOR 161135Z 03006KT 07/07 A2989 RMK A01 T00730069  RH  100%=      5-min Rain = 0
KNOR 161140Z 03005KT 07/07 A2989 RMK A01 T00720068  RH  100%=      5-min Rain = 0
KNOR 161145Z 04005KT 07/07 A2989 RMK A01 T00720068  RH  100%=      5-min Rain = 0
KNOR 161150Z 04005KT 07/07 A2988 RMK A01 T00710068  RH  100%=      5-min Rain = 0
KNOR 161155Z 04005KT 07/07 A2988 RMK A01 T00710068  RH  100%=      5-min Rain = 0
KNOR 161200Z 05005KT 07/07 A2988 RMK A01 T00720068  RH  100%=      5-min Rain = 0
KNOR 161205Z 06005KT 07/07 A2988 RMK A01 T00710068  RH  100%=      5-min Rain = 0
KNOR 161210Z 07004KT 07/07 A2988 RMK A01 T00710067  RH  100%=      5-min Rain = 0
KNOR 161215Z 07004KT 07/07 A2988 RMK A01 T00700067  RH  100%=      5-min Rain = 0
KNOR 161220Z 03004KT 07/07 A2988 RMK A01 T00700067  RH  100%=      5-min Rain = 0
KNOR 161225Z 01006KT 07/07 A2989 RMK A01 T00710067  RH  100%=      5-min Rain = 0
KNOR 161230Z 01005KT 07/07 A2989 RMK A01 T00720068  RH  100%=      5-min Rain = 0
KNOR 161235Z 02004KT 07/07 A2989 RMK A01 T00720069  RH  100%=      5-min Rain = 0
KNOR 161240Z 01006KT 07/07 A2989 RMK A01 T00720068  RH  100%=      5-min Rain = 0
KNOR 161245Z 01006KT 07/07 A2989 RMK A01 T00720068  RH  100%=      5-min Rain = 0
KNOR 161250Z 01006KT 07/07 A299 RMK A01 T00710068  RH  100%=      5-min Rain = 0
KNOR 161255Z 00006KT 07/07 A299 RMK A01 T00720068  RH  100%=      5-min Rain = 0
KNOR 161300Z 36005KT 07/07 A299 RMK A01 T00720069  RH  100%=      5-min Rain = 0
KNOR 161305Z 36005KT 07/07 A2991 RMK A01 T00730069  RH  100%=      5-min Rain = 0
KNOR 161310Z 35006KT 07/07 A2992 RMK A01 T00720068  RH  100%=      5-min Rain = 0
KNOR 161315Z 35007KT 07/07 A2992 RMK A01 T00720068  RH  100%=      5-min Rain = 0
KNOR 161320Z 35007KT 07/07 A2992 RMK A01 T00720068  RH  100%=      5-min Rain = 0
KNOR 161325Z 35007KT 07/07 A2992 RMK A01 T00720068  RH  100%=      5-min Rain = 0
KNOR 161330Z 36007KT 07/07 A2992 RMK A01 T00720068  RH  100%=      5-min Rain = 0
KNOR 161335Z 36008KT 07/07 A2992 RMK A01 T00720068  RH  100%=      5-min Rain = 0
KNOR 161340Z 00006KT 07/07 A2992 RMK A01 T00720069  RH  100%=      5-min Rain = 0
KNOR 161345Z 35007KT 07/07 A2992 RMK A01 T00730070  RH  100%=      5-min Rain = 0
KNOR 161350Z 36008KT 07/07 A2992 RMK A01 T00730069  RH  100%=      5-min Rain = 0
KNOR 161355Z 00007KT 07/07 A2992 RMK A01 T00740070  RH  100%=      5-min Rain = 0
KNOR 161400Z 36008KT 08/07 A2993 RMK A01 T00750071  RH  100%=      5-min Rain = 0
KNOR 161405Z 36008KT 08/07 A2993 RMK A01 T00760072  RH  100%=      5-min Rain = 0
KNOR 161410Z 36009KT 08/07 A2993 RMK A01 T00760072  RH  100%=      5-min Rain = 0
KNOR 161415Z 35010KT 08/07 A2993 RMK A01 T00760073  RH  100%=      5-min Rain = 0
KNOR 161420Z 35008KT 08/07 A2993 RMK A01 T00770073  RH  100%=      5-min Rain = 0
KNOR 161425Z 35009KT 08/07 A2993 RMK A01 T00770073  RH  100%=      5-min Rain = 0
KNOR 161430Z 35009KT 08/07 A2993 RMK A01 T00770073  RH  100%=      5-min Rain = 0
KNOR 161435Z 35008KT 08/08 A2993 RMK A01 T00790075  RH  100%=      5-min Rain = 0
KNOR 161440Z 35009KT 08/07 A2994 RMK A01 T00770073  RH  100%=      5-min Rain = 0
KNOR 161445Z 35009KT 08/07 A2994 RMK A01 T00760073  RH  100%=      5-min Rain = 0
KNOR 161450Z 34008KT 08/07 A2994 RMK A01 T00760073  RH  100%=      5-min Rain = 0
KNOR 161455Z 35009KT 08/07 A2994 RMK A01 T00760072  RH  100%=      5-min Rain = 0
KNOR 161500Z 35009KT 08/07 A2994 RMK A01 T00760072  RH  100%=      5-min Rain = 0
KNOR 161505Z 34009KT 08/07 A2994 RMK A01 T00760072  RH  100%=      5-min Rain = 0
KNOR 161510Z 35010KT 08/07 A2995 RMK A01 T00760072  RH  100%=      5-min Rain = 0
KNOR 161515Z 35010KT 08/07 A2995 RMK A01 T00760073  RH  100%=      5-min Rain = 0
KNOR 161520Z 35009KT 08/07 A2995 RMK A01 T00770074  RH  100%=      5-min Rain = 0
KNOR 161525Z 35010G15KT 08/08 A2995 RMK A01 T00790075  RH  100%=      5-min Rain = 0
KNOR 161530Z 35008G13KT 08/08 A2995 RMK A01 T00830079  RH  100%=      5-min Rain = 0
KNOR 161535Z 35010KT 08/08 A2995 RMK A01 T00800076  RH  100%=      5-min Rain = 0
KNOR 161540Z 34011KT 08/08 A2995 RMK A01 T00800076  RH  100%=      5-min Rain = 0
KNOR 161545Z 34012KT 08/08 A2995 RMK A01 T00790075  RH  100%=      5-min Rain = 0
KNOR 161550Z 35010G15KT 08/07 A2995 RMK A01 T00780074  RH  100%=      5-min Rain = 0
KNOR 161555Z 35011KT 08/08 A2996 RMK A01 T00780075  RH  100%=      5-min Rain = 0
KNOR 161600Z 35009KT 08/08 A2996 RMK A01 T00780075  RH  100%=      5-min Rain = 0
KNOR 161605Z 35010KT 08/07 A2996 RMK A01 T00780074  RH  100%=      5-min Rain = 0
KNOR 161610Z 34010KT 08/07 A2996 RMK A01 T00780074  RH  100%=      5-min Rain = 0
KNOR 161615Z 34010KT 08/08 A2996 RMK A01 T00800076  RH  100%=      5-min Rain = 0
KNOR 161620Z 35011G16KT 08/08 A2996 RMK A01 T00800076  RH  100%=      5-min Rain = 0
KNOR 161625Z 34011KT 08/08 A2996 RMK A01 T00810077  RH  100%=      5-min Rain = 0
KNOR 161630Z 35012KT 08/08 A2996 RMK A01 T00820077  RH  099%=      5-min Rain = 0
KNOR 161635Z 34013G18KT 08/08 A2996 RMK A01 T00830076  RH  098%=      5-min Rain = 0
KNOR 161640Z 34013G18KT 09/08 A2996 RMK A01 T00860077  RH  097%=      5-min Rain = 0
KNOR 161645Z 34011G18KT 09/08 A2996 RMK A01 T00910079  RH  095%=      5-min Rain = 0
KNOR 161650Z 34011KT 09/08 A2996 RMK A01 T00930079  RH  094%=      5-min Rain = 0
KNOR 161655Z 34013KT 09/08 A2996 RMK A01 T00900075  RH  093%=      5-min Rain = 0
KNOR 161700Z 34012KT 09/07 A2996 RMK A01 T00900074  RH  092%=      5-min Rain = 0
KNOR 161705Z 34011G16KT 09/07 A2996 RMK A01 T00900074  RH  092%=      5-min Rain = 0
KNOR 161710Z 35012G17KT 09/07 A2997 RMK A01 T00910074  RH  092%=      5-min Rain = 0
KNOR 161715Z 35010G15KT 09/07 A2997 RMK A01 T00900072  RH  091%=      5-min Rain = 0
KNOR 161720Z 35011G16KT 09/07 A2997 RMK A01 T00920073  RH  091%=      5-min Rain = 0
KNOR 161725Z 35010KT 10/08 A2997 RMK A01 T00960076  RH  090%=      5-min Rain = 0
KNOR 161730Z 34010KT 11/08 A2997 RMK A01 T01050081  RH  088%=      5-min Rain = 0
KNOR 161735Z 34011G16KT 10/08 A2997 RMK A01 T01010075  RH  086%=      5-min Rain = 0
KNOR 161740Z 35011G16KT 10/08 A2997 RMK A01 T01000075  RH  087%=      5-min Rain = 0
KNOR 161745Z 35014KT 10/07 A2997 RMK A01 T01000072  RH  085%=      5-min Rain = 0
KNOR 161750Z 34014G19KT 10/07 A2997 RMK A01 T00990070  RH  084%=      5-min Rain = 0
KNOR 161755Z 35012G17KT 10/07 A2997 RMK A01 T00990072  RH  085%=      5-min Rain = 0
KNOR 161800Z 35011G16KT 10/07 A2998 RMK A01 T00990073  RH  086%=      5-min Rain = 0
KNOR 161805Z 35012G17KT 10/07 A2997 RMK A01 T00990072  RH  086%=      5-min Rain = 0
KNOR 161810Z 35012KT 10/07 A2997 RMK A01 T01000072  RH  085%=      5-min Rain = 0
KNOR 161815Z 35013G19KT 10/07 A2997 RMK A01 T01030072  RH  083%=      5-min Rain = 0
KNOR 161820Z 35013KT 11/07 A2997 RMK A01 T01060070  RH  080%=      5-min Rain = 0
KNOR 161825Z 35012G17KT 11/07 A2997 RMK A01 T01090071  RH  080%=      5-min Rain = 0
KNOR 161830Z 34013KT 11/07 A2997 RMK A01 T01070068  RH  079%=      5-min Rain = 0
KNOR 161835Z 35014KT 11/07 A2997 RMK A01 T01060067  RH  079%=      5-min Rain = 0
KNOR 161840Z 35015G20KT 11/07 A2997 RMK A01 T01070066  RH  077%=      5-min Rain = 0
KNOR 161845Z 35014G19KT 11/07 A2997 RMK A01 T01090065  RH  076%=      5-min Rain = 0
KNOR 161850Z 35015G21KT 11/06 A2997 RMK A01 T01110063  RH  074%=      5-min Rain = 0
KNOR 161855Z 35015KT 11/06 A2997 RMK A01 T01140064  RH  073%=      5-min Rain = 0
KNOR 161900Z 35015G21KT 11/06 A2997 RMK A01 T01120063  RH  073%=      5-min Rain = 0
KNOR 161905Z 35012KT 11/07 A2998 RMK A01 T01120065  RH  074%=      5-min Rain = 0
KNOR 161910Z 34014G19KT 11/06 A2998 RMK A01 T01120064  RH  074%=      5-min Rain = 0
KNOR 161915Z 34014KT 11/07 A2998 RMK A01 T01140065  RH  073%=      5-min Rain = 0
KNOR 161920Z 34012G17KT 12/07 A2998 RMK A01 T01180065  RH  072%=      5-min Rain = 0
KNOR 161925Z 34014KT 12/06 A2998 RMK A01 T01180064  RH  072%=      5-min Rain = 0
KNOR 161930Z 35013G18KT 12/06 A2998 RMK A01 T01220064  RH  070%=      5-min Rain = 0
KNOR 161935Z 34014G19KT 12/06 A2998 RMK A01 T01210062  RH  069%=      5-min Rain = 0
KNOR 161940Z 34015G21KT 13/06 A2998 RMK A01 T01250061  RH  066%=      5-min Rain = 0
KNOR 161945Z 34017G22KT 12/06 A2998 RMK A01 T01210058  RH  067%=      5-min Rain = 0
KNOR 161950Z 33015G20KT 12/06 A2998 RMK A01 T01240061  RH  067%=      5-min Rain = 0
KNOR 161955Z 35016G23KT 13/06 A2997 RMK A01 T01310060  RH  064%=      5-min Rain = 0
KNOR 162000Z 34015G22KT 13/06 A2997 RMK A01 T01260056  RH  064%=      5-min Rain = 0
KNOR 162005Z 35015G20KT 12/06 A2998 RMK A01 T01220057  RH  066%=      5-min Rain = 0
KNOR 162010Z 35015G20KT 13/06 A2998 RMK A01 T01270057  RH  064%=      5-min Rain = 0
KNOR 162015Z 00015G22KT 14/06 A2997 RMK A01 T01370056  RH  059%=      5-min Rain = 0
KNOR 162020Z 00015G20KT 13/05 A2997 RMK A01 T01290054  RH  062%=      5-min Rain = 0
KNOR 162025Z 36015G21KT 12/06 A2997 RMK A01 T01240055  RH  064%=      5-min Rain = 0
KNOR 162030Z 35015G20KT 13/06 A2997 RMK A01 T01280057  RH  063%=      5-min Rain = 0
KNOR 162035Z 35017G24KT 13/05 A2997 RMK A01 T01290054  RH  062%=      5-min Rain = 0
KNOR 162040Z 35017G22KT 13/05 A2997 RMK A01 T01280052  RH  061%=      5-min Rain = 0
KNOR 162045Z 34015G21KT 13/05 A2997 RMK A01 T01290049  RH  059%=      5-min Rain = 0
KNOR 162050Z 36015G20KT 13/05 A2997 RMK A01 T01270050  RH  061%=      5-min Rain = 0
KNOR 162055Z 35018KT 12/05 A2997 RMK A01 T01220050  RH  063%=      5-min Rain = 0
KNOR 162100Z 35016G22KT 12/05 A2997 RMK A01 T01220048  RH  062%=      5-min Rain = 0
KNOR 162105Z 35015G20KT 13/05 A2997 RMK A01 T01260051  RH  061%=      5-min Rain = 0
KNOR 162110Z 35016G22KT 13/05 A2997 RMK A01 T01260051  RH  062%=      5-min Rain = 0
KNOR 162115Z 36015G20KT 12/05 A2998 RMK A01 T01240049  RH  061%=      5-min Rain = 0
KNOR 162120Z 00014G19KT 14/05 A2998 RMK A01 T01350049  RH  057%=      5-min Rain = 0
KNOR 162125Z 36015KT 13/05 A2998 RMK A01 T01290045  RH  058%=      5-min Rain = 0
KNOR 162130Z 01016G28KT 12/05 A2998 RMK A01 T01240049  RH  061%=      5-min Rain = 0
KNOR 162135Z 36017G25KT 12/05 A2998 RMK A01 T01180049  RH  064%=      5-min Rain = 0
KNOR 162140Z 35016G22KT 12/05 A2998 RMK A01 T01220050  RH  063%=      5-min Rain = 0
KNOR 162145Z 36015G20KT 13/05 A2998 RMK A01 T01280051  RH  061%=      5-min Rain = 0
KNOR 162150Z 35014G20KT 13/05 A2998 RMK A01 T01320051  RH  059%=      5-min Rain = 0
KNOR 162155Z 35017G23KT 13/05 A2998 RMK A01 T01340049  RH  058%=      5-min Rain = 0
KNOR 162200Z 35015G20KT 13/05 A2998 RMK A01 T01320050  RH  059%=      5-min Rain = 0
KNOR 162205Z 34016G24KT 14/04 A2998 RMK A01 T01400042  RH  053%=      5-min Rain = 0
KNOR 162210Z 36018G25KT 13/04 A2999 RMK A01 T01280041  RH  056%=      5-min Rain = 0
KNOR 162215Z 36016G22KT 12/04 A2999 RMK A01 T01230042  RH  059%=      5-min Rain = 0
KNOR 162220Z 35016G22KT 13/04 A2999 RMK A01 T01250041  RH  058%=      5-min Rain = 0
KNOR 162225Z 35017G22KT 13/04 A2999 RMK A01 T01250042  RH  058%=      5-min Rain = 0
KNOR 162230Z 35017G23KT 12/04 A30 RMK A01 T01210043  RH  060%=      5-min Rain = 0
KNOR 162235Z 00017G22KT 12/04 A2999 RMK A01 T01240041  RH  058%=      5-min Rain = 0
KNOR 162240Z 00015G21KT 12/04 A30 RMK A01 T01230038  RH  057%=      5-min Rain = 0
KNOR 162245Z 00018G25KT 12/04 A30 RMK A01 T01230037  RH  056%=      5-min Rain = 0
KNOR 162250Z 01018G23KT 12/04 A3001 RMK A01 T01200037  RH  058%=      5-min Rain = 0
KNOR 162255Z 36017G22KT 12/03 A3001 RMK A01 T01180034  RH  057%=      5-min Rain = 0
KNOR 162300Z 36014G19KT 12/03 A3001 RMK A01 T01180033  RH  057%=      5-min Rain = 0
KNOR 162305Z 00016G22KT 12/04 A3001 RMK A01 T01190037  RH  058%=      5-min Rain = 0
KNOR 162310Z 01017G22KT 12/04 A3001 RMK A01 T01170036  RH  059%=      5-min Rain = 0
KNOR 162315Z 01019G25KT 11/03 A3001 RMK A01 T01130034  RH  059%=      5-min Rain = 0
KNOR 162320Z 00017G22KT 11/04 A3002 RMK A01 T01130035  RH  060%=      5-min Rain = 0
KNOR 162325Z 00018G24KT 11/03 A3002 RMK A01 T01120033  RH  059%=      5-min Rain = 0
KNOR 162330Z 35017G23KT 11/03 A3002 RMK A01 T01110033  RH  060%=      5-min Rain = 0
KNOR 162335Z 35018G23KT 11/03 A3003 RMK A01 T01100032  RH  060%=      5-min Rain = 0
KNOR 162340Z 35019G27KT 11/03 A3003 RMK A01 T01100033  RH  060%=      5-min Rain = 0
KNOR 162345Z 01020G26KT 11/03 A3003 RMK A01 T01140034  RH  059%=      5-min Rain = 0
KNOR 162350Z 35020G27KT 11/03 A3004 RMK A01 T01070031  RH  060%=      5-min Rain = 0
KNOR 162355Z 00019G28KT 11/03 A3004 RMK A01 T01050030  RH  061%=      5-min Rain = 0
KNOR 170000Z 35020G27KT 10/03 A3005 RMK A01 T00980029  RH  063%=      5-min Rain = 0
KNOR 170005Z 35020G27KT 10/03 A3005 RMK A01 T01000027  RH  061%=      5-min Rain = 0
KNOR 170010Z 35018G24KT 10/03 A3005 RMK A01 T00970025  RH  062%=      5-min Rain = 0
KNOR 170015Z 35017G23KT 09/02 A3006 RMK A01 T00910024  RH  064%=      5-min Rain = 0
KNOR 170020Z 35014G19KT 09/03 A3006 RMK A01 T00910026  RH  065%=      5-min Rain = 0
KNOR 170025Z 35016KT 09/03 A3006 RMK A01 T00910027  RH  066%=      5-min Rain = 0
KNOR 170030Z 36015G20KT 09/03 A3006 RMK A01 T00900027  RH  066%=      5-min Rain = 0
KNOR 170035Z 35014G19KT 09/03 A3006 RMK A01 T00890028  RH  067%=      5-min Rain = 0
KNOR 170040Z 35017G23KT 09/03 A3007 RMK A01 T00880026  RH  066%=      5-min Rain = 0
KNOR 170045Z 35015G20KT 09/03 A3007 RMK A01 T00870026  RH  066%=      5-min Rain = 0
KNOR 170050Z 36015KT 09/03 A3008 RMK A01 T00870025  RH  066%=      5-min Rain = 0
KNOR 170055Z 35013KT 09/03 A3008 RMK A01 T00860026  RH  067%=      5-min Rain = 0
KNOR 170100Z 36015G21KT 09/02 A3008 RMK A01 T00860023  RH  066%=      5-min Rain = 0
KNOR 170105Z 01016G21KT 09/02 A3008 RMK A01 T00860023  RH  066%=      5-min Rain = 0
KNOR 170110Z 00016G25KT 09/02 A3008 RMK A01 T00850022  RH  066%=      5-min Rain = 0
KNOR 170115Z 00014G19KT 08/02 A3008 RMK A01 T00840023  RH  066%=      5-min Rain = 0
KNOR 170120Z 00011G16KT 08/02 A3008 RMK A01 T00840024  RH  067%=      5-min Rain = 0
KNOR 170125Z 00012G17KT 08/03 A3008 RMK A01 T00840025  RH  068%=      5-min Rain = 0
KNOR 170130Z 36011G16KT 08/03 A3009 RMK A01 T00840025  RH  068%=      5-min Rain = 0
KNOR 170135Z 01012KT 08/03 A3009 RMK A01 T00840027  RH  068%=      5-min Rain = 0
KNOR 170140Z 01014KT 08/03 A3009 RMK A01 T00840026  RH  068%=      5-min Rain = 0
KNOR 170145Z 01012G17KT 08/03 A3009 RMK A01 T00840025  RH  068%=      5-min Rain = 0
KNOR 170150Z 01013KT 08/03 A3009 RMK A01 T00830025  RH  068%=      5-min Rain = 0
KNOR 170155Z 01013KT 08/03 A301 RMK A01 T00830026  RH  068%=      5-min Rain = 0
KNOR 170200Z 02012G17KT 08/03 A301 RMK A01 T00830026  RH  069%=      5-min Rain = 0
KNOR 170205Z 01011G16KT 08/03 A301 RMK A01 T00820027  RH  069%=      5-min Rain = 0
KNOR 170210Z 01014G19KT 08/03 A301 RMK A01 T00820026  RH  069%=      5-min Rain = 0
KNOR 170215Z 01012KT 08/03 A3011 RMK A01 T00810027  RH  070%=      5-min Rain = 0
KNOR 170220Z 01012KT 08/03 A3011 RMK A01 T00810026  RH  069%=      5-min Rain = 0
KNOR 170225Z 01012KT 08/03 A3012 RMK A01 T00810026  RH  069%=      5-min Rain = 0
KNOR 170230Z 01011G16KT 08/03 A3012 RMK A01 T00810026  RH  069%=      5-min Rain = 0
KNOR 170235Z 01011G17KT 08/02 A3013 RMK A01 T00810024  RH  069%=      5-min Rain = 0
KNOR 170240Z 00012G18KT 08/02 A3014 RMK A01 T00810023  RH  068%=      5-min Rain = 0
KNOR 170245Z 00011KT 08/02 A3014 RMK A01 T00810023  RH  068%=      5-min Rain = 0
KNOR 170250Z 01011KT 08/02 A3014 RMK A01 T00810022  RH  068%=      5-min Rain = 0
KNOR 170255Z 00011KT 08/02 A3015 RMK A01 T00810023  RH  068%=      5-min Rain = 0
KNOR 170300Z 00011KT 08/02 A3016 RMK A01 T00810022  RH  068%=      5-min Rain = 0
KNOR 170305Z 36013KT 08/02 A3016 RMK A01 T00810022  RH  067%=      5-min Rain = 0
KNOR 170310Z 36011G17KT 08/02 A3016 RMK A01 T00790021  RH  068%=      5-min Rain = 0
KNOR 170315Z 00012KT 08/02 A3016 RMK A01 T00770020  RH  068%=      5-min Rain = 0
KNOR 170320Z 00011KT 08/02 A3016 RMK A01 T00770017  RH  067%=      5-min Rain = 0
KNOR 170325Z 36011KT 08/02 A3017 RMK A01 T00750016  RH  067%=      5-min Rain = 0
KNOR 170330Z 36009KT 07/02 A3017 RMK A01 T00740016  RH  068%=      5-min Rain = 0
KNOR 170335Z 36009KT 07/02 A3017 RMK A01 T00730016  RH  068%=      5-min Rain = 0
KNOR 170340Z 36009KT 07/02 A3017 RMK A01 T00730015  RH  067%=      5-min Rain = 0
KNOR 170345Z 00009KT 07/02 A3017 RMK A01 T00720016  RH  068%=      5-min Rain = 0
KNOR 170350Z 00009KT 07/02 A3016 RMK A01 T00720016  RH  069%=      5-min Rain = 0
KNOR 170355Z 00009KT 07/02 A3015 RMK A01 T00710016  RH  069%=      5-min Rain = 0
KNOR 170400Z 01009KT 07/02 A3015 RMK A01 T00700016  RH  070%=      5-min Rain = 0
KNOR 170405Z 01008KT 07/02 A3015 RMK A01 T00690017  RH  070%=      5-min Rain = 0
KNOR 170410Z 01010KT 07/02 A3014 RMK A01 T00680017  RH  071%=      5-min Rain = 0
KNOR 170415Z 02010KT 07/02 A3013 RMK A01 T00680017  RH  071%=      5-min Rain = 0
KNOR 170420Z 01010KT 07/02 A3013 RMK A01 T00670017  RH  071%=      5-min Rain = 0
KNOR 170425Z 01010KT 07/02 A3014 RMK A01 T00660017  RH  072%=      5-min Rain = 0
KNOR 170430Z 00008KT 07/02 A3014 RMK A01 T00650017  RH  073%=      5-min Rain = 0
KNOR 170435Z 35007KT 06/02 A3014 RMK A01 T00640017  RH  073%=      5-min Rain = 0
KNOR 170440Z 34006KT 06/02 A3015 RMK A01 T00620018  RH  074%=      5-min Rain = 0
KNOR 170445Z 35006KT 06/02 A3015 RMK A01 T00610018  RH  075%=      5-min Rain = 0
KNOR 170450Z 34006KT 06/02 A3015 RMK A01 T00600018  RH  076%=      5-min Rain = 0
KNOR 170455Z 35005KT 06/02 A3015 RMK A01 T00590018  RH  076%=      5-min Rain = 0

Page generated in 0.0085 seconds.